sensor_id;sensor_type;location;lat;lon;timestamp;pressure;altitude;pressure_sealevel;temperature;humidity
23589;BME280;11972;48.078;11.876;2022-07-29T00:00:56;95306.16;;;18.40;100.00
23589;BME280;11972;48.078;11.876;2022-07-29T00:04:56;95302.69;;;18.27;100.00
23589;BME280;11972;48.078;11.876;2022-07-29T00:08:57;95307.44;;;18.25;100.00
23589;BME280;11972;48.078;11.876;2022-07-29T00:12:57;95300.03;;;18.27;100.00
23589;BME280;11972;48.078;11.876;2022-07-29T00:16:57;95294.78;;;18.32;100.00
23589;BME280;11972;48.078;11.876;2022-07-29T00:20:58;95292.66;;;18.34;100.00
23589;BME280;11972;48.078;11.876;2022-07-29T00:24:58;95287.31;;;18.34;100.00
23589;BME280;11972;48.078;11.876;2022-07-29T00:28:59;95290.91;;;18.40;100.00
23589;BME280;11972;48.078;11.876;2022-07-29T00:33:01;95291.25;;;18.44;100.00
23589;BME280;11972;48.078;11.876;2022-07-29T00:37:01;95288.69;;;18.49;100.00
23589;BME280;11972;48.078;11.876;2022-07-29T00:41:02;95289.03;;;18.52;100.00
23589;BME280;11972;48.078;11.876;2022-07-29T00:45:02;95281.34;;;18.56;100.00
23589;BME280;11972;48.078;11.876;2022-07-29T00:49:03;95267.13;;;18.55;100.00
23589;BME280;11972;48.078;11.876;2022-07-29T00:53:04;95267.97;;;18.56;100.00
23589;BME280;11972;48.078;11.876;2022-07-29T00:57:06;95271.22;;;18.58;100.00
23589;BME280;11972;48.078;11.876;2022-07-29T01:01:07;95265.84;;;18.58;100.00
23589;BME280;11972;48.078;11.876;2022-07-29T01:05:08;95260.50;;;18.58;100.00
23589;BME280;11972;48.078;11.876;2022-07-29T01:09:09;95262.94;;;18.59;100.00
23589;BME280;11972;48.078;11.876;2022-07-29T01:13:11;95263.44;;;18.56;100.00
23589;BME280;11972;48.078;11.876;2022-07-29T01:17:17;95257.75;;;18.53;100.00
23589;BME280;11972;48.078;11.876;2022-07-29T01:21:40;95261.47;;;18.52;100.00
23589;BME280;11972;48.078;11.876;2022-07-29T01:25:57;95267.28;;;18.49;100.00
23589;BME280;11972;48.078;11.876;2022-07-29T01:30:01;95250.09;;;18.45;100.00
23589;BME280;11972;48.078;11.876;2022-07-29T01:34:05;95246.75;;;18.38;100.00
23589;BME280;11972;48.078;11.876;2022-07-29T01:38:13;95246.66;;;18.32;100.00
23589;BME280;11972;48.078;11.876;2022-07-29T01:42:26;95247.03;;;18.24;100.00
23589;BME280;11972;48.078;11.876;2022-07-29T01:46:33;95249.28;;;18.04;100.00
23589;BME280;11972;48.078;11.876;2022-07-29T01:50:41;95250.69;;;17.83;100.00
23589;BME280;11972;48.078;11.876;2022-07-29T01:54:53;95247.41;;;17.69;100.00
23589;BME280;11972;48.078;11.876;2022-07-29T01:58:56;95237.09;;;17.61;100.00
23589;BME280;11972;48.078;11.876;2022-07-29T02:02:58;95249.63;;;17.49;100.00
23589;BME280;11972;48.078;11.876;2022-07-29T02:07:02;95245.09;;;17.38;100.00
23589;BME280;11972;48.078;11.876;2022-07-29T02:11:04;95242.31;;;17.32;100.00
23589;BME280;11972;48.078;11.876;2022-07-29T02:15:06;95239.66;;;17.32;100.00
23589;BME280;11972;48.078;11.876;2022-07-29T02:19:08;95239.06;;;17.30;100.00
23589;BME280;11972;48.078;11.876;2022-07-29T02:23:10;95231.63;;;17.32;100.00
23589;BME280;11972;48.078;11.876;2022-07-29T02:27:12;95231.75;;;17.38;100.00
23589;BME280;11972;48.078;11.876;2022-07-29T02:31:14;95224.56;;;17.38;100.00
23589;BME280;11972;48.078;11.876;2022-07-29T02:35:16;95230.25;;;17.42;100.00
23589;BME280;11972;48.078;11.876;2022-07-29T02:39:17;95211.66;;;17.47;100.00
23589;BME280;11972;48.078;11.876;2022-07-29T02:43:19;95205.88;;;17.50;100.00
23589;BME280;11972;48.078;11.876;2022-07-29T02:47:41;95203.09;;;17.45;100.00
23589;BME280;11972;48.078;11.876;2022-07-29T02:51:46;95214.22;;;17.18;100.00
23589;BME280;11972;48.078;11.876;2022-07-29T02:55:56;95217.22;;;17.10;100.00
23589;BME280;11972;48.078;11.876;2022-07-29T02:59:59;95208.16;;;17.11;100.00
23589;BME280;11972;48.078;11.876;2022-07-29T03:04:04;95210.13;;;17.16;100.00
23589;BME280;11972;48.078;11.876;2022-07-29T03:08:07;95187.97;;;17.15;100.00
23589;BME280;11972;48.078;11.876;2022-07-29T03:12:10;95200.28;;;17.16;100.00
23589;BME280;11972;48.078;11.876;2022-07-29T03:16:10;95199.59;;;17.21;100.00
23589;BME280;11972;48.078;11.876;2022-07-29T03:20:11;95198.66;;;17.15;100.00
23589;BME280;11972;48.078;11.876;2022-07-29T03:24:30;95196.66;;;16.99;100.00
23589;BME280;11972;48.078;11.876;2022-07-29T03:28:30;95195.69;;;16.81;100.00
23589;BME280;11972;48.078;11.876;2022-07-29T03:32:31;95191.81;;;16.66;100.00
23589;BME280;11972;48.078;11.876;2022-07-29T03:36:31;95201.84;;;16.52;100.00
23589;BME280;11972;48.078;11.876;2022-07-29T03:40:42;95206.19;;;16.34;100.00
23589;BME280;11972;48.078;11.876;2022-07-29T03:44:47;95202.97;;;16.14;100.00
23589;BME280;11972;48.078;11.876;2022-07-29T03:48:50;95211.44;;;15.93;100.00
23589;BME280;11972;48.078;11.876;2022-07-29T03:52:52;95221.03;;;15.75;100.00
23589;BME280;11972;48.078;11.876;2022-07-29T03:56:53;95211.72;;;15.66;100.00
23589;BME280;11972;48.078;11.876;2022-07-29T04:00:54;95210.78;;;15.54;100.00
23589;BME280;11972;48.078;11.876;2022-07-29T04:04:55;95213.97;;;15.44;100.00
23589;BME280;11972;48.078;11.876;2022-07-29T04:08:56;95214.03;;;15.37;100.00
23589;BME280;11972;48.078;11.876;2022-07-29T04:12:56;95215.31;;;15.35;100.00
23589;BME280;11972;48.078;11.876;2022-07-29T04:16:56;95213.88;;;15.32;100.00
23589;BME280;11972;48.078;11.876;2022-07-29T04:20:57;95215.94;;;15.30;100.00
23589;BME280;11972;48.078;11.876;2022-07-29T04:25:00;95211.22;;;15.32;100.00
23589;BME280;11972;48.078;11.876;2022-07-29T04:29:01;95217.78;;;15.30;100.00
23589;BME280;11972;48.078;11.876;2022-07-29T04:33:02;95225.59;;;15.25;100.00
23589;BME280;11972;48.078;11.876;2022-07-29T04:37:03;95228.94;;;15.20;100.00
23589;BME280;11972;48.078;11.876;2022-07-29T04:41:03;95228.50;;;15.23;100.00
23589;BME280;11972;48.078;11.876;2022-07-29T04:45:04;95231.75;;;15.25;100.00
23589;BME280;11972;48.078;11.876;2022-07-29T04:49:05;95229.22;;;15.30;100.00
23589;BME280;11972;48.078;11.876;2022-07-29T04:53:06;95229.19;;;15.37;100.00
23589;BME280;11972;48.078;11.876;2022-07-29T04:57:06;95227.44;;;15.49;100.00
23589;BME280;11972;48.078;11.876;2022-07-29T05:01:07;95237.94;;;15.62;100.00
23589;BME280;11972;48.078;11.876;2022-07-29T05:05:07;95247.66;;;15.75;100.00
23589;BME280;11972;48.078;11.876;2022-07-29T05:09:08;95248.88;;;15.98;100.00
23589;BME280;11972;48.078;11.876;2022-07-29T05:13:08;95255.16;;;16.22;100.00
23589;BME280;11972;48.078;11.876;2022-07-29T05:17:08;95250.16;;;16.44;100.00
23589;BME280;11972;48.078;11.876;2022-07-29T05:21:09;95255.50;;;16.74;100.00
23589;BME280;11972;48.078;11.876;2022-07-29T05:25:09;95253.66;;;17.16;100.00
23589;BME280;11972;48.078;11.876;2022-07-29T05:29:09;95258.94;;;17.70;100.00
23589;BME280;11972;48.078;11.876;2022-07-29T05:33:11;95265.13;;;18.22;100.00
23589;BME280;11972;48.078;11.876;2022-07-29T05:37:11;95274.16;;;18.85;100.00
23589;BME280;11972;48.078;11.876;2022-07-29T05:41:13;95276.56;;;19.82;100.00
23589;BME280;11972;48.078;11.876;2022-07-29T05:45:13;95272.16;;;20.32;100.00
23589;BME280;11972;48.078;11.876;2022-07-29T05:49:13;95269.75;;;20.52;100.00
23589;BME280;11972;48.078;11.876;2022-07-29T05:53:14;95272.69;;;20.51;100.00
23589;BME280;11972;48.078;11.876;2022-07-29T05:57:18;95268.94;;;20.52;100.00
23589;BME280;11972;48.078;11.876;2022-07-29T06:01:19;95270.78;;;20.29;100.00
23589;BME280;11972;48.078;11.876;2022-07-29T06:05:19;95278.63;;;20.14;100.00
23589;BME280;11972;48.078;11.876;2022-07-29T06:09:20;95272.59;;;20.68;100.00
23589;BME280;11972;48.078;11.876;2022-07-29T06:13:20;95285.19;;;20.89;100.00
23589;BME280;11972;48.078;11.876;2022-07-29T06:17:20;95291.16;;;20.96;100.00
23589;BME280;11972;48.078;11.876;2022-07-29T06:21:21;95292.19;;;20.90;100.00
23589;BME280;11972;48.078;11.876;2022-07-29T06:25:21;95288.66;;;20.90;100.00
23589;BME280;11972;48.078;11.876;2022-07-29T06:29:21;95288.75;;;21.27;100.00
23589;BME280;11972;48.078;11.876;2022-07-29T06:33:22;95283.03;;;21.40;100.00
23589;BME280;11972;48.078;11.876;2022-07-29T06:37:22;95280.16;;;21.52;100.00
23589;BME280;11972;48.078;11.876;2022-07-29T06:41:22;95285.81;;;21.55;100.00
23589;BME280;11972;48.078;11.876;2022-07-29T06:45:23;95281.03;;;21.63;100.00
23589;BME280;11972;48.078;11.876;2022-07-29T06:49:24;95289.94;;;21.68;100.00
23589;BME280;11972;48.078;11.876;2022-07-29T06:53:26;95283.03;;;21.77;100.00
23589;BME280;11972;48.078;11.876;2022-07-29T06:57:27;95282.09;;;21.99;100.00
23589;BME280;11972;48.078;11.876;2022-07-29T07:01:27;95288.16;;;22.21;100.00
23589;BME280;11972;48.078;11.876;2022-07-29T07:05:27;95285.03;;;22.35;100.00
23589;BME280;11972;48.078;11.876;2022-07-29T07:09:28;95294.28;;;22.59;100.00
23589;BME280;11972;48.078;11.876;2022-07-29T07:13:28;95289.75;;;22.75;100.00
23589;BME280;11972;48.078;11.876;2022-07-29T07:17:34;95285.50;;;22.89;100.00
23589;BME280;11972;48.078;11.876;2022-07-29T07:21:34;95284.78;;;23.09;100.00
23589;BME280;11972;48.078;11.876;2022-07-29T07:25:35;95287.75;;;23.28;100.00
23589;BME280;11972;48.078;11.876;2022-07-29T07:29:36;95286.47;;;23.71;100.00
23589;BME280;11972;48.078;11.876;2022-07-29T07:33:36;95296.69;;;23.85;100.00
23589;BME280;11972;48.078;11.876;2022-07-29T07:37:38;95296.69;;;23.80;100.00
23589;BME280;11972;48.078;11.876;2022-07-29T07:41:40;95294.53;;;23.87;100.00
23589;BME280;11972;48.078;11.876;2022-07-29T07:45:40;95291.31;;;23.95;100.00
23589;BME280;11972;48.078;11.876;2022-07-29T07:49:41;95296.16;;;23.83;100.00
23589;BME280;11972;48.078;11.876;2022-07-29T07:53:41;95292.34;;;23.48;100.00
23589;BME280;11972;48.078;11.876;2022-07-29T07:57:42;95294.00;;;23.69;100.00
23589;BME280;11972;48.078;11.876;2022-07-29T08:01:43;95296.13;;;24.08;100.00
23589;BME280;11972;48.078;11.876;2022-07-29T08:05:43;95298.75;;;24.44;100.00
23589;BME280;11972;48.078;11.876;2022-07-29T08:09:44;95290.09;;;24.57;100.00
23589;BME280;11972;48.078;11.876;2022-07-29T08:13:44;95290.47;;;24.85;100.00
23589;BME280;11972;48.078;11.876;2022-07-29T08:17:44;95289.03;;;25.08;100.00
23589;BME280;11972;48.078;11.876;2022-07-29T08:21:45;95289.97;;;25.32;100.00
23589;BME280;11972;48.078;11.876;2022-07-29T08:25:45;95292.47;;;25.23;100.00
23589;BME280;11972;48.078;11.876;2022-07-29T08:29:46;95285.31;;;25.43;100.00
23589;BME280;11972;48.078;11.876;2022-07-29T08:33:46;95289.38;;;25.74;100.00
23589;BME280;11972;48.078;11.876;2022-07-29T08:37:47;95294.69;;;25.90;100.00
23589;BME280;11972;48.078;11.876;2022-07-29T08:41:47;95297.22;;;26.10;100.00
23589;BME280;11972;48.078;11.876;2022-07-29T08:45:50;95308.09;;;26.05;100.00
23589;BME280;11972;48.078;11.876;2022-07-29T08:49:50;95302.41;;;25.72;100.00
23589;BME280;11972;48.078;11.876;2022-07-29T08:53:50;95306.81;;;25.58;100.00
23589;BME280;11972;48.078;11.876;2022-07-29T08:57:51;95304.91;;;25.64;100.00
23589;BME280;11972;48.078;11.876;2022-07-29T09:01:53;95288.75;;;25.88;100.00
23589;BME280;11972;48.078;11.876;2022-07-29T09:05:54;95293.53;;;25.96;100.00
23589;BME280;11972;48.078;11.876;2022-07-29T09:09:54;95299.03;;;26.44;100.00
23589;BME280;11972;48.078;11.876;2022-07-29T09:13:56;95301.84;;;26.34;100.00
23589;BME280;11972;48.078;11.876;2022-07-29T09:17:56;95302.88;;;26.14;100.00
23589;BME280;11972;48.078;11.876;2022-07-29T09:21:59;95300.94;;;26.43;100.00
23589;BME280;11972;48.078;11.876;2022-07-29T09:26:05;95298.03;;;26.83;100.00
23589;BME280;11972;48.078;11.876;2022-07-29T09:30:08;95296.56;;;26.71;100.00
23589;BME280;11972;48.078;11.876;2022-07-29T09:34:12;95300.31;;;26.76;100.00
23589;BME280;11972;48.078;11.876;2022-07-29T09:38:13;95295.78;;;26.47;100.00
23589;BME280;11972;48.078;11.876;2022-07-29T09:42:27;95296.28;;;26.49;100.00
23589;BME280;11972;48.078;11.876;2022-07-29T09:46:28;95298.81;;;26.11;100.00
23589;BME280;11972;48.078;11.876;2022-07-29T09:50:37;95288.94;;;26.26;100.00
23589;BME280;11972;48.078;11.876;2022-07-29T09:54:37;95291.56;;;26.84;100.00
23589;BME280;11972;48.078;11.876;2022-07-29T09:58:38;95291.47;;;26.89;100.00
23589;BME280;11972;48.078;11.876;2022-07-29T10:02:41;95275.94;;;26.76;100.00
23589;BME280;11972;48.078;11.876;2022-07-29T10:06:59;95270.41;;;27.24;100.00
23589;BME280;11972;48.078;11.876;2022-07-29T10:11:12;95271.94;;;27.49;100.00
23589;BME280;11972;48.078;11.876;2022-07-29T10:15:13;95276.69;;;27.76;100.00
23589;BME280;11972;48.078;11.876;2022-07-29T10:19:15;95273.38;;;28.25;99.86
23589;BME280;11972;48.078;11.876;2022-07-29T10:23:16;95278.44;;;29.01;98.76
23589;BME280;11972;48.078;11.876;2022-07-29T10:27:17;95281.69;;;28.61;95.61
23589;BME280;11972;48.078;11.876;2022-07-29T10:31:40;95275.00;;;28.95;95.22
23589;BME280;11972;48.078;11.876;2022-07-29T10:36:10;95273.47;;;28.20;96.02
23589;BME280;11972;48.078;11.876;2022-07-29T10:40:39;95266.81;;;27.66;99.23
23589;BME280;11972;48.078;11.876;2022-07-29T10:45:02;95272.41;;;27.37;100.00
23589;BME280;11972;48.078;11.876;2022-07-29T10:49:10;95271.88;;;27.35;100.00
23589;BME280;11972;48.078;11.876;2022-07-29T10:53:11;95273.69;;;27.58;100.00
23589;BME280;11972;48.078;11.876;2022-07-29T10:57:21;95271.94;;;28.00;100.00
23589;BME280;11972;48.078;11.876;2022-07-29T11:01:30;95276.31;;;27.82;100.00
23589;BME280;11972;48.078;11.876;2022-07-29T11:05:51;95278.66;;;27.70;100.00
23589;BME280;11972;48.078;11.876;2022-07-29T11:10:24;95280.97;;;27.44;100.00
23589;BME280;11972;48.078;11.876;2022-07-29T11:14:57;95282.75;;;27.16;100.00
23589;BME280;11972;48.078;11.876;2022-07-29T11:19:18;95281.66;;;27.17;100.00
23589;BME280;11972;48.078;11.876;2022-07-29T11:23:30;95283.47;;;26.79;100.00
23589;BME280;11972;48.078;11.876;2022-07-29T11:27:31;95294.59;;;26.77;100.00
23589;BME280;11972;48.078;11.876;2022-07-29T11:31:45;95287.72;;;26.85;100.00
23589;BME280;11972;48.078;11.876;2022-07-29T11:36:09;95288.94;;;26.73;100.00
23589;BME280;11972;48.078;11.876;2022-07-29T11:40:12;95281.81;;;26.35;100.00
23589;BME280;11972;48.078;11.876;2022-07-29T11:44:12;95277.53;;;26.29;100.00
23589;BME280;11972;48.078;11.876;2022-07-29T11:48:17;95277.53;;;26.29;100.00
23589;BME280;11972;48.078;11.876;2022-07-29T11:52:18;95276.84;;;26.42;100.00
23589;BME280;11972;48.078;11.876;2022-07-29T11:56:21;95257.06;;;27.08;100.00
23589;BME280;11972;48.078;11.876;2022-07-29T12:00:36;95257.56;;;27.48;100.00
23589;BME280;11972;48.078;11.876;2022-07-29T12:04:51;95243.78;;;28.10;100.00
23589;BME280;11972;48.078;11.876;2022-07-29T12:08:51;95252.31;;;28.50;94.72
23589;BME280;11972;48.078;11.876;2022-07-29T12:12:52;95246.25;;;28.66;90.49
23589;BME280;11972;48.078;11.876;2022-07-29T12:16:56;95251.44;;;28.22;87.34
23589;BME280;11972;48.078;11.876;2022-07-29T12:21:01;95242.59;;;28.02;89.06
23589;BME280;11972;48.078;11.876;2022-07-29T12:25:13;95242.00;;;28.33;89.07
23589;BME280;11972;48.078;11.876;2022-07-29T12:29:18;95239.88;;;28.30;87.33
23589;BME280;11972;48.078;11.876;2022-07-29T12:33:21;95229.78;;;28.49;83.25
23589;BME280;11972;48.078;11.876;2022-07-29T12:37:22;95233.13;;;28.96;84.57
23589;BME280;11972;48.078;11.876;2022-07-29T12:41:22;95228.47;;;29.47;85.24
23589;BME280;11972;48.078;11.876;2022-07-29T12:45:29;95216.66;;;29.51;78.01
23589;BME280;11972;48.078;11.876;2022-07-29T12:49:30;95216.66;;;29.51;77.72
23589;BME280;11972;48.078;11.876;2022-07-29T12:53:31;95212.84;;;29.16;78.52
23589;BME280;11972;48.078;11.876;2022-07-29T12:57:32;95213.34;;;29.18;78.76
23589;BME280;11972;48.078;11.876;2022-07-29T13:01:36;95217.88;;;29.45;81.00
23589;BME280;11972;48.078;11.876;2022-07-29T13:05:42;95218.75;;;29.77;82.70
23589;BME280;11972;48.078;11.876;2022-07-29T13:09:44;95216.00;;;29.54;77.48
23589;BME280;11972;48.078;11.876;2022-07-29T13:13:50;95211.63;;;29.89;80.33
23589;BME280;11972;48.078;11.876;2022-07-29T13:17:51;95205.16;;;30.48;81.98
23589;BME280;11972;48.078;11.876;2022-07-29T13:21:51;95216.66;;;29.74;73.25
23589;BME280;11972;48.078;11.876;2022-07-29T13:25:52;95209.34;;;29.38;78.84
23589;BME280;11972;48.078;11.876;2022-07-29T13:29:53;95211.25;;;29.37;76.96
23589;BME280;11972;48.078;11.876;2022-07-29T13:33:56;95201.13;;;29.52;81.40
23589;BME280;11972;48.078;11.876;2022-07-29T13:37:56;95213.66;;;29.16;78.68
23589;BME280;11972;48.078;11.876;2022-07-29T13:41:57;95211.63;;;29.22;81.55
23589;BME280;11972;48.078;11.876;2022-07-29T13:45:57;95201.03;;;29.21;77.55
23589;BME280;11972;48.078;11.876;2022-07-29T13:49:57;95190.50;;;29.64;77.51
23589;BME280;11972;48.078;11.876;2022-07-29T13:53:58;95190.41;;;29.33;78.62
23589;BME280;11972;48.078;11.876;2022-07-29T13:57:59;95193.25;;;28.91;81.71
23589;BME280;11972;48.078;11.876;2022-07-29T14:01:59;95184.53;;;29.17;82.79
23589;BME280;11972;48.078;11.876;2022-07-29T14:06:00;95170.16;;;29.39;79.92
23589;BME280;11972;48.078;11.876;2022-07-29T14:10:00;95177.59;;;28.75;74.65
23589;BME280;11972;48.078;11.876;2022-07-29T14:14:01;95186.50;;;28.25;83.47
23589;BME280;11972;48.078;11.876;2022-07-29T14:18:02;95190.41;;;28.05;91.40
23589;BME280;11972;48.078;11.876;2022-07-29T14:22:04;95180.94;;;27.75;93.99
23589;BME280;11972;48.078;11.876;2022-07-29T14:26:04;95181.69;;;27.29;96.30
23589;BME280;11972;48.078;11.876;2022-07-29T14:30:06;95183.06;;;27.27;98.34
23589;BME280;11972;48.078;11.876;2022-07-29T14:34:06;95191.31;;;27.54;99.84
23589;BME280;11972;48.078;11.876;2022-07-29T14:38:06;95183.16;;;27.54;99.40
23589;BME280;11972;48.078;11.876;2022-07-29T14:42:07;95181.72;;;27.43;99.87
23589;BME280;11972;48.078;11.876;2022-07-29T14:46:08;95170.63;;;27.58;99.34
23589;BME280;11972;48.078;11.876;2022-07-29T14:50:09;95178.75;;;27.58;99.61
23589;BME280;11972;48.078;11.876;2022-07-29T14:54:09;95185.28;;;28.31;99.35
23589;BME280;11972;48.078;11.876;2022-07-29T14:58:10;95177.09;;;29.23;95.56
23589;BME280;11972;48.078;11.876;2022-07-29T15:02:10;95175.03;;;30.04;88.48
23589;BME280;11972;48.078;11.876;2022-07-29T15:06:10;95184.13;;;29.24;85.87
23589;BME280;11972;48.078;11.876;2022-07-29T15:10:11;95186.09;;;28.32;88.45
23589;BME280;11972;48.078;11.876;2022-07-29T15:14:11;95185.91;;;28.42;85.37
23589;BME280;11972;48.078;11.876;2022-07-29T15:18:12;95173.28;;;28.74;88.79
23589;BME280;11972;48.078;11.876;2022-07-29T15:22:12;95166.69;;;29.02;87.99
23589;BME280;11972;48.078;11.876;2022-07-29T15:26:12;95179.00;;;28.86;88.73
23589;BME280;11972;48.078;11.876;2022-07-29T15:30:12;95177.03;;;28.23;91.15
23589;BME280;11972;48.078;11.876;2022-07-29T15:34:15;95178.16;;;27.94;96.33
23589;BME280;11972;48.078;11.876;2022-07-29T15:38:15;95177.50;;;27.37;98.21
23589;BME280;11972;48.078;11.876;2022-07-29T15:42:16;95186.31;;;26.91;99.91
23589;BME280;11972;48.078;11.876;2022-07-29T15:46:18;95195.84;;;26.45;100.00
23589;BME280;11972;48.078;11.876;2022-07-29T15:50:37;95198.06;;;26.19;100.00
23589;BME280;11972;48.078;11.876;2022-07-29T15:54:39;95193.91;;;26.03;100.00
23589;BME280;11972;48.078;11.876;2022-07-29T15:58:42;95208.38;;;25.93;100.00
23589;BME280;11972;48.078;11.876;2022-07-29T16:02:43;95215.88;;;25.67;100.00
23589;BME280;11972;48.078;11.876;2022-07-29T16:06:45;95220.94;;;25.45;100.00
23589;BME280;11972;48.078;11.876;2022-07-29T16:10:45;95213.06;;;25.19;100.00
23589;BME280;11972;48.078;11.876;2022-07-29T16:14:46;95223.13;;;25.04;100.00
23589;BME280;11972;48.078;11.876;2022-07-29T16:18:48;95212.97;;;24.85;100.00
23589;BME280;11972;48.078;11.876;2022-07-29T16:22:48;95215.47;;;24.71;100.00
23589;BME280;11972;48.078;11.876;2022-07-29T16:26:49;95208.00;;;24.58;100.00
23589;BME280;11972;48.078;11.876;2022-07-29T16:30:49;95215.06;;;24.49;100.00
23589;BME280;11972;48.078;11.876;2022-07-29T16:34:50;95224.00;;;24.39;100.00
23589;BME280;11972;48.078;11.876;2022-07-29T16:38:50;95222.66;;;24.37;100.00
23589;BME280;11972;48.078;11.876;2022-07-29T16:42:51;95224.84;;;24.30;100.00
23589;BME280;11972;48.078;11.876;2022-07-29T16:46:51;95236.19;;;24.21;100.00
23589;BME280;11972;48.078;11.876;2022-07-29T16:54:52;95234.91;;;24.04;100.00
23589;BME280;11972;48.078;11.876;2022-07-29T16:58:52;95249.19;;;23.94;100.00
23589;BME280;11972;48.078;11.876;2022-07-29T17:02:52;95245.47;;;23.59;100.00
23589;BME280;11972;48.078;11.876;2022-07-29T17:06:53;95257.31;;;23.48;100.00
23589;BME280;11972;48.078;11.876;2022-07-29T17:10:53;95255.66;;;23.11;100.00
23589;BME280;11972;48.078;11.876;2022-07-29T17:14:53;95274.75;;;22.99;100.00
23589;BME280;11972;48.078;11.876;2022-07-29T17:18:55;95275.84;;;22.93;100.00
23589;BME280;11972;48.078;11.876;2022-07-29T17:22:55;95288.78;;;23.01;100.00
23589;BME280;11972;48.078;11.876;2022-07-29T17:26:56;95286.09;;;23.12;100.00
23589;BME280;11972;48.078;11.876;2022-07-29T17:30:56;95295.28;;;23.16;100.00
23589;BME280;11972;48.078;11.876;2022-07-29T17:34:57;95304.97;;;23.12;100.00
23589;BME280;11972;48.078;11.876;2022-07-29T17:39:07;95312.75;;;23.08;100.00
23589;BME280;11972;48.078;11.876;2022-07-29T17:43:07;95315.44;;;22.93;100.00
23589;BME280;11972;48.078;11.876;2022-07-29T17:47:14;95327.69;;;22.68;100.00
23589;BME280;11972;48.078;11.876;2022-07-29T17:51:17;95318.97;;;22.46;100.00
23589;BME280;11972;48.078;11.876;2022-07-29T17:55:18;95315.06;;;22.21;100.00
23589;BME280;11972;48.078;11.876;2022-07-29T17:59:21;95319.78;;;22.04;100.00
23589;BME280;11972;48.078;11.876;2022-07-29T18:03:22;95328.41;;;22.06;100.00
23589;BME280;11972;48.078;11.876;2022-07-29T18:07:24;95337.50;;;22.00;100.00
23589;BME280;11972;48.078;11.876;2022-07-29T18:11:24;95358.34;;;21.83;100.00
23589;BME280;11972;48.078;11.876;2022-07-29T18:15:25;95361.97;;;21.66;100.00
23589;BME280;11972;48.078;11.876;2022-07-29T18:19:25;95360.22;;;21.50;100.00
23589;BME280;11972;48.078;11.876;2022-07-29T18:23:26;95367.22;;;21.29;100.00
23589;BME280;11972;48.078;11.876;2022-07-29T18:27:26;95365.31;;;21.02;100.00
23589;BME280;11972;48.078;11.876;2022-07-29T18:31:27;95363.84;;;20.68;100.00
23589;BME280;11972;48.078;11.876;2022-07-29T18:35:27;95371.69;;;20.52;100.00
23589;BME280;11972;48.078;11.876;2022-07-29T18:39:27;95380.50;;;20.14;100.00
23589;BME280;11972;48.078;11.876;2022-07-29T18:43:28;95384.50;;;19.61;100.00
23589;BME280;11972;48.078;11.876;2022-07-29T18:47:28;95379.13;;;19.32;100.00
23589;BME280;11972;48.078;11.876;2022-07-29T18:51:29;95388.22;;;19.03;100.00
23589;BME280;11972;48.078;11.876;2022-07-29T18:55:29;95401.25;;;18.99;100.00
23589;BME280;11972;48.078;11.876;2022-07-29T18:59:30;95397.78;;;19.27;100.00
23589;BME280;11972;48.078;11.876;2022-07-29T19:03:30;95389.38;;;19.36;100.00
23589;BME280;11972;48.078;11.876;2022-07-29T19:07:31;95393.75;;;19.42;100.00
23589;BME280;11972;48.078;11.876;2022-07-29T19:11:31;95398.63;;;19.45;100.00
23589;BME280;11972;48.078;11.876;2022-07-29T19:15:32;95405.22;;;18.97;100.00
23589;BME280;11972;48.078;11.876;2022-07-29T19:19:32;95410.41;;;18.75;100.00
23589;BME280;11972;48.078;11.876;2022-07-29T19:23:32;95427.16;;;18.58;100.00
23589;BME280;11972;48.078;11.876;2022-07-29T19:27:35;95432.16;;;18.55;100.00
23589;BME280;11972;48.078;11.876;2022-07-29T19:31:35;95442.84;;;18.78;100.00
23589;BME280;11972;48.078;11.876;2022-07-29T19:35:36;95456.84;;;18.80;100.00
23589;BME280;11972;48.078;11.876;2022-07-29T19:39:36;95469.63;;;18.78;100.00
23589;BME280;11972;48.078;11.876;2022-07-29T19:43:37;95473.44;;;18.59;100.00
23589;BME280;11972;48.078;11.876;2022-07-29T19:47:38;95470.19;;;18.57;100.00
23589;BME280;11972;48.078;11.876;2022-07-29T19:51:39;95467.97;;;18.54;100.00
23589;BME280;11972;48.078;11.876;2022-07-29T19:55:41;95472.16;;;18.50;100.00
23589;BME280;11972;48.078;11.876;2022-07-29T19:59:41;95469.81;;;18.18;100.00
23589;BME280;11972;48.078;11.876;2022-07-29T20:03:42;95474.31;;;18.06;100.00
23589;BME280;11972;48.078;11.876;2022-07-29T20:07:44;95475.78;;;17.78;100.00
23589;BME280;11972;48.078;11.876;2022-07-29T20:11:46;95484.44;;;17.44;100.00
23589;BME280;11972;48.078;11.876;2022-07-29T20:15:47;95484.34;;;17.20;100.00
23589;BME280;11972;48.078;11.876;2022-07-29T20:19:48;95477.53;;;17.06;100.00
23589;BME280;11972;48.078;11.876;2022-07-29T20:23:49;95491.63;;;16.95;100.00
23589;BME280;11972;48.078;11.876;2022-07-29T20:27:50;95479.63;;;16.85;100.00
23589;BME280;11972;48.078;11.876;2022-07-29T20:31:51;95479.53;;;16.74;100.00
23589;BME280;11972;48.078;11.876;2022-07-29T20:35:51;95477.94;;;16.66;100.00
23589;BME280;11972;48.078;11.876;2022-07-29T20:39:52;95483.41;;;16.53;100.00
23589;BME280;11972;48.078;11.876;2022-07-29T20:43:52;95482.84;;;16.51;100.00
23589;BME280;11972;48.078;11.876;2022-07-29T20:47:53;95479.41;;;16.44;100.00
23589;BME280;11972;48.078;11.876;2022-07-29T20:51:53;95487.25;;;16.38;100.00
23589;BME280;11972;48.078;11.876;2022-07-29T20:55:54;95480.72;;;16.34;100.00
23589;BME280;11972;48.078;11.876;2022-07-29T20:59:54;95480.72;;;16.34;100.00